sensor_id;sensor_type;location;lat;lon;timestamp;pressure;altitude;pressure_sealevel;temperature;humidity
66273;BME280;58450;52.150;4.466;2023-01-31T00:01:41;102461.34;;;5.00;100.00
66273;BME280;58450;52.150;4.466;2023-01-31T00:04:10;102457.19;;;4.96;100.00
66273;BME280;58450;52.150;4.466;2023-01-31T00:06:39;102452.13;;;4.80;100.00
66273;BME280;58450;52.150;4.466;2023-01-31T00:09:10;102448.44;;;4.94;100.00
66273;BME280;58450;52.150;4.466;2023-01-31T00:11:38;102440.78;;;4.90;100.00
66273;BME280;58450;52.150;4.466;2023-01-31T00:14:07;102439.09;;;4.88;100.00
66273;BME280;58450;52.150;4.466;2023-01-31T00:16:36;102437.91;;;4.93;100.00
66273;BME280;58450;52.150;4.466;2023-01-31T00:19:04;102426.66;;;5.00;100.00
66273;BME280;58450;52.150;4.466;2023-01-31T00:21:32;102430.28;;;4.99;100.00
66273;BME280;58450;52.150;4.466;2023-01-31T00:24:00;102424.00;;;5.00;100.00
66273;BME280;58450;52.150;4.466;2023-01-31T00:26:32;102423.47;;;4.95;100.00
66273;BME280;58450;52.150;4.466;2023-01-31T00:29:02;102414.63;;;4.95;100.00
66273;BME280;58450;52.150;4.466;2023-01-31T00:31:32;102408.44;;;4.94;100.00
66273;BME280;58450;52.150;4.466;2023-01-31T00:34:01;102405.31;;;5.00;100.00
66273;BME280;58450;52.150;4.466;2023-01-31T00:36:30;102399.38;;;4.97;100.00
66273;BME280;58450;52.150;4.466;2023-01-31T00:39:02;102396.56;;;4.98;100.00
66273;BME280;58450;52.150;4.466;2023-01-31T00:41:32;102397.00;;;5.05;100.00
66273;BME280;58450;52.150;4.466;2023-01-31T00:44:00;102382.84;;;5.16;100.00
66273;BME280;58450;52.150;4.466;2023-01-31T00:46:28;102383.94;;;5.13;100.00
66273;BME280;58450;52.150;4.466;2023-01-31T00:48:56;102374.63;;;5.19;100.00
66273;BME280;58450;52.150;4.466;2023-01-31T00:51:24;102369.69;;;5.26;100.00
66273;BME280;58450;52.150;4.466;2023-01-31T00:53:54;102363.09;;;5.18;100.00
66273;BME280;58450;52.150;4.466;2023-01-31T00:56:23;102358.28;;;5.24;100.00
66273;BME280;58450;52.150;4.466;2023-01-31T00:58:52;102368.94;;;5.24;100.00
66273;BME280;58450;52.150;4.466;2023-01-31T01:01:22;102362.13;;;5.20;100.00
66273;BME280;58450;52.150;4.466;2023-01-31T01:03:56;102350.72;;;5.17;100.00
66273;BME280;58450;52.150;4.466;2023-01-31T01:06:24;102343.44;;;4.95;100.00
66273;BME280;58450;52.150;4.466;2023-01-31T01:08:54;102342.19;;;4.88;100.00
66273;BME280;58450;52.150;4.466;2023-01-31T01:11:24;102357.31;;;5.25;100.00
66273;BME280;58450;52.150;4.466;2023-01-31T01:13:54;102341.22;;;5.38;100.00
66273;BME280;58450;52.150;4.466;2023-01-31T01:16:24;102333.19;;;5.38;100.00
66273;BME280;58450;52.150;4.466;2023-01-31T01:18:53;102333.81;;;5.41;100.00
66273;BME280;58450;52.150;4.466;2023-01-31T01:21:22;102345.25;;;5.19;100.00
66273;BME280;58450;52.150;4.466;2023-01-31T01:23:54;102342.53;;;5.08;100.00
66273;BME280;58450;52.150;4.466;2023-01-31T01:26:24;102339.72;;;4.98;100.00
66273;BME280;58450;52.150;4.466;2023-01-31T01:28:54;102343.22;;;4.98;100.00
66273;BME280;58450;52.150;4.466;2023-01-31T01:31:23;102349.84;;;4.93;100.00
66273;BME280;58450;52.150;4.466;2023-01-31T01:33:55;102356.00;;;5.06;100.00
66273;BME280;58450;52.150;4.466;2023-01-31T01:36:24;102351.94;;;5.00;100.00
66273;BME280;58450;52.150;4.466;2023-01-31T01:38:54;102359.63;;;5.05;100.00
66273;BME280;58450;52.150;4.466;2023-01-31T01:41:23;102363.84;;;5.21;100.00
66273;BME280;58450;52.150;4.466;2023-01-31T01:43:52;102352.28;;;5.20;100.00
66273;BME280;58450;52.150;4.466;2023-01-31T01:46:25;102346.66;;;5.36;100.00
66273;BME280;58450;52.150;4.466;2023-01-31T01:48:58;102359.50;;;5.31;100.00
66273;BME280;58450;52.150;4.466;2023-01-31T01:51:30;102358.34;;;5.46;100.00
66273;BME280;58450;52.150;4.466;2023-01-31T01:54:04;102367.78;;;5.64;100.00
66273;BME280;58450;52.150;4.466;2023-01-31T01:56:41;102364.88;;;5.67;100.00
66273;BME280;58450;52.150;4.466;2023-01-31T01:59:15;102359.66;;;5.76;100.00
66273;BME280;58450;52.150;4.466;2023-01-31T02:01:48;102364.13;;;5.76;100.00
66273;BME280;58450;52.150;4.466;2023-01-31T02:04:19;102362.63;;;5.96;100.00
66273;BME280;58450;52.150;4.466;2023-01-31T02:06:50;102361.88;;;5.94;100.00
66273;BME280;58450;52.150;4.466;2023-01-31T02:09:26;102367.72;;;5.99;100.00
66273;BME280;58450;52.150;4.466;2023-01-31T02:12:00;102360.47;;;6.01;100.00
66273;BME280;58450;52.150;4.466;2023-01-31T02:14:27;102368.59;;;6.11;100.00
66273;BME280;58450;52.150;4.466;2023-01-31T02:16:55;102369.22;;;6.03;100.00
66273;BME280;58450;52.150;4.466;2023-01-31T02:19:35;102355.72;;;6.05;100.00
66273;BME280;58450;52.150;4.466;2023-01-31T02:22:21;102358.63;;;6.02;100.00
66273;BME280;58450;52.150;4.466;2023-01-31T02:25:26;102369.47;;;6.00;100.00
66273;BME280;58450;52.150;4.466;2023-01-31T02:35:06;102359.97;;;6.19;100.00
66273;BME280;58450;52.150;4.466;2023-01-31T02:37:44;102343.94;;;6.19;100.00
66273;BME280;58450;52.150;4.466;2023-01-31T02:40:30;102344.78;;;6.08;100.00
66273;BME280;58450;52.150;4.466;2023-01-31T02:43:11;102337.41;;;6.12;100.00
66273;BME280;58450;52.150;4.466;2023-01-31T02:45:50;102337.38;;;6.00;100.00
66273;BME280;58450;52.150;4.466;2023-01-31T02:48:33;102328.03;;;6.06;100.00
66273;BME280;58450;52.150;4.466;2023-01-31T02:51:17;102328.28;;;6.26;100.00
66273;BME280;58450;52.150;4.466;2023-01-31T02:53:52;102324.38;;;6.18;100.00
66273;BME280;58450;52.150;4.466;2023-01-31T02:56:32;102322.69;;;6.17;100.00
66273;BME280;58450;52.150;4.466;2023-01-31T02:59:04;102328.50;;;6.11;100.00
66273;BME280;58450;52.150;4.466;2023-01-31T03:01:36;102333.13;;;6.09;100.00
66273;BME280;58450;52.150;4.466;2023-01-31T03:04:07;102328.53;;;6.23;100.00
66273;BME280;58450;52.150;4.466;2023-01-31T03:06:51;102319.28;;;6.27;100.00
66273;BME280;58450;52.150;4.466;2023-01-31T03:09:36;102316.59;;;6.15;100.00
66273;BME280;58450;52.150;4.466;2023-01-31T03:12:20;102323.19;;;6.23;100.00
66273;BME280;58450;52.150;4.466;2023-01-31T03:15:08;102317.94;;;6.21;100.00
66273;BME280;58450;52.150;4.466;2023-01-31T03:17:56;102318.91;;;6.20;100.00
66273;BME280;58450;52.150;4.466;2023-01-31T03:20:29;102316.38;;;6.18;100.00
66273;BME280;58450;52.150;4.466;2023-01-31T03:23:14;102313.22;;;6.13;100.00
66273;BME280;58450;52.150;4.466;2023-01-31T03:25:45;102326.44;;;6.26;100.00
66273;BME280;58450;52.150;4.466;2023-01-31T03:28:20;102323.41;;;6.19;100.00
66273;BME280;58450;52.150;4.466;2023-01-31T03:30:59;102316.63;;;6.27;100.00
66273;BME280;58450;52.150;4.466;2023-01-31T03:33:34;102306.63;;;6.52;100.00
66273;BME280;58450;52.150;4.466;2023-01-31T03:36:10;102304.69;;;6.19;100.00
66273;BME280;58450;52.150;4.466;2023-01-31T03:38:56;102304.22;;;6.26;100.00
66273;BME280;58450;52.150;4.466;2023-01-31T03:41:44;102293.53;;;6.14;100.00
66273;BME280;58450;52.150;4.466;2023-01-31T03:44:24;102278.59;;;6.00;100.00
66273;BME280;58450;52.150;4.466;2023-01-31T03:47:02;102278.78;;;6.43;100.00
66273;BME280;58450;52.150;4.466;2023-01-31T03:49:38;102268.84;;;6.22;100.00
66273;BME280;58450;52.150;4.466;2023-01-31T03:52:09;102287.19;;;6.27;100.00
66273;BME280;58450;52.150;4.466;2023-01-31T03:54:47;102308.84;;;6.12;100.00
66273;BME280;58450;52.150;4.466;2023-01-31T03:57:21;102283.69;;;6.15;100.00
66273;BME280;58450;52.150;4.466;2023-01-31T03:59:57;102287.84;;;6.08;100.00
66273;BME280;58450;52.150;4.466;2023-01-31T04:02:31;102271.41;;;6.24;100.00
66273;BME280;58450;52.150;4.466;2023-01-31T04:05:05;102275.78;;;6.13;100.00
66273;BME280;58450;52.150;4.466;2023-01-31T04:07:37;102282.59;;;6.29;100.00
66273;BME280;58450;52.150;4.466;2023-01-31T04:10:10;102285.50;;;6.26;100.00
66273;BME280;58450;52.150;4.466;2023-01-31T04:12:41;102298.88;;;6.26;100.00
66273;BME280;58450;52.150;4.466;2023-01-31T04:15:09;102257.06;;;6.25;100.00
66273;BME280;58450;52.150;4.466;2023-01-31T04:17:38;102265.09;;;6.25;100.00
66273;BME280;58450;52.150;4.466;2023-01-31T04:20:06;102278.81;;;6.20;100.00
66273;BME280;58450;52.150;4.466;2023-01-31T04:22:35;102284.53;;;6.15;100.00
66273;BME280;58450;52.150;4.466;2023-01-31T04:25:03;102263.72;;;6.42;100.00
66273;BME280;58450;52.150;4.466;2023-01-31T04:27:34;102257.63;;;6.40;100.00
66273;BME280;58450;52.150;4.466;2023-01-31T04:30:01;102268.09;;;6.31;100.00
66273;BME280;58450;52.150;4.466;2023-01-31T04:32:29;102253.97;;;6.52;100.00
66273;BME280;58450;52.150;4.466;2023-01-31T04:34:57;102251.78;;;6.57;100.00
66273;BME280;58450;52.150;4.466;2023-01-31T04:37:24;102248.50;;;6.54;100.00
66273;BME280;58450;52.150;4.466;2023-01-31T04:39:52;102234.88;;;6.57;100.00
66273;BME280;58450;52.150;4.466;2023-01-31T04:42:19;102242.13;;;6.66;100.00
66273;BME280;58450;52.150;4.466;2023-01-31T04:44:48;102234.97;;;6.67;100.00
66273;BME280;58450;52.150;4.466;2023-01-31T04:47:15;102246.81;;;6.53;100.00
66273;BME280;58450;52.150;4.466;2023-01-31T04:49:43;102241.78;;;6.59;100.00
66273;BME280;58450;52.150;4.466;2023-01-31T04:52:10;102237.66;;;6.67;100.00
66273;BME280;58450;52.150;4.466;2023-01-31T04:54:38;102245.06;;;6.63;100.00
66273;BME280;58450;52.150;4.466;2023-01-31T04:57:06;102229.47;;;6.68;100.00
66273;BME280;58450;52.150;4.466;2023-01-31T04:59:34;102230.59;;;6.65;100.00
66273;BME280;58450;52.150;4.466;2023-01-31T05:02:03;102216.69;;;6.39;100.00
66273;BME280;58450;52.150;4.466;2023-01-31T05:04:30;102203.44;;;6.38;100.00
66273;BME280;58450;52.150;4.466;2023-01-31T05:06:58;102201.47;;;6.51;100.00
66273;BME280;58450;52.150;4.466;2023-01-31T05:09:25;102227.88;;;6.44;100.00
66273;BME280;58450;52.150;4.466;2023-01-31T05:11:53;102232.31;;;6.55;100.00
66273;BME280;58450;52.150;4.466;2023-01-31T05:14:20;102209.06;;;6.67;100.00
66273;BME280;58450;52.150;4.466;2023-01-31T05:16:47;102225.25;;;6.65;100.00
66273;BME280;58450;52.150;4.466;2023-01-31T05:19:16;102236.63;;;6.46;100.00
66273;BME280;58450;52.150;4.466;2023-01-31T05:21:44;102251.91;;;6.56;100.00
66273;BME280;58450;52.150;4.466;2023-01-31T05:24:24;102211.19;;;6.52;100.00
66273;BME280;58450;52.150;4.466;2023-01-31T05:26:53;102234.16;;;6.55;100.00
66273;BME280;58450;52.150;4.466;2023-01-31T05:29:24;102214.47;;;6.56;100.00
66273;BME280;58450;52.150;4.466;2023-01-31T05:31:51;102209.19;;;6.65;100.00
66273;BME280;58450;52.150;4.466;2023-01-31T05:34:21;102230.13;;;6.60;100.00
66273;BME280;58450;52.150;4.466;2023-01-31T05:36:50;102208.78;;;6.70;100.00
66273;BME280;58450;52.150;4.466;2023-01-31T05:39:18;102256.50;;;6.98;100.00
66273;BME280;58450;52.150;4.466;2023-01-31T05:41:45;102223.66;;;6.95;100.00
66273;BME280;58450;52.150;4.466;2023-01-31T05:44:13;102229.16;;;6.61;100.00
66273;BME280;58450;52.150;4.466;2023-01-31T05:46:41;102234.00;;;6.68;100.00
66273;BME280;58450;52.150;4.466;2023-01-31T05:49:09;102236.78;;;6.66;100.00
66273;BME280;58450;52.150;4.466;2023-01-31T05:51:39;102218.66;;;6.70;100.00
66273;BME280;58450;52.150;4.466;2023-01-31T05:54:09;102217.47;;;6.62;100.00
66273;BME280;58450;52.150;4.466;2023-01-31T05:56:37;102216.28;;;6.55;100.00
66273;BME280;58450;52.150;4.466;2023-01-31T05:59:05;102209.13;;;6.56;100.00
66273;BME280;58450;52.150;4.466;2023-01-31T06:01:32;102219.69;;;6.57;100.00
66273;BME280;58450;52.150;4.466;2023-01-31T06:04:00;102224.19;;;6.57;100.00
66273;BME280;58450;52.150;4.466;2023-01-31T06:06:27;102207.97;;;6.70;100.00
66273;BME280;58450;52.150;4.466;2023-01-31T06:08:56;102207.88;;;6.60;100.00
66273;BME280;58450;52.150;4.466;2023-01-31T06:11:24;102203.63;;;6.57;100.00
66273;BME280;58450;52.150;4.466;2023-01-31T06:13:51;102234.91;;;6.45;100.00
66273;BME280;58450;52.150;4.466;2023-01-31T06:16:22;102211.56;;;6.80;100.00
66273;BME280;58450;52.150;4.466;2023-01-31T06:18:50;102215.22;;;6.79;100.00
66273;BME280;58450;52.150;4.466;2023-01-31T06:21:17;102186.78;;;6.78;100.00
66273;BME280;58450;52.150;4.466;2023-01-31T06:23:45;102224.59;;;6.73;100.00
66273;BME280;58450;52.150;4.466;2023-01-31T06:26:14;102209.66;;;6.71;100.00
66273;BME280;58450;52.150;4.466;2023-01-31T06:28:41;102207.34;;;6.33;100.00
66273;BME280;58450;52.150;4.466;2023-01-31T06:31:10;102202.06;;;6.55;100.00
66273;BME280;58450;52.150;4.466;2023-01-31T06:33:38;102189.28;;;6.14;100.00
66273;BME280;58450;52.150;4.466;2023-01-31T06:36:06;102213.09;;;6.06;100.00
66273;BME280;58450;52.150;4.466;2023-01-31T06:38:34;102186.63;;;6.03;100.00
66273;BME280;58450;52.150;4.466;2023-01-31T06:41:02;102195.97;;;5.86;100.00
66273;BME280;58450;52.150;4.466;2023-01-31T06:43:30;102201.66;;;5.92;100.00
66273;BME280;58450;52.150;4.466;2023-01-31T06:45:58;102173.25;;;5.80;100.00
66273;BME280;58450;52.150;4.466;2023-01-31T06:48:25;102162.19;;;5.96;100.00
66273;BME280;58450;52.150;4.466;2023-01-31T06:50:53;102164.72;;;5.98;100.00
66273;BME280;58450;52.150;4.466;2023-01-31T06:53:21;102178.50;;;5.82;100.00
66273;BME280;58450;52.150;4.466;2023-01-31T06:55:48;102202.38;;;5.95;100.00
66273;BME280;58450;52.150;4.466;2023-01-31T06:58:15;102151.75;;;5.93;100.00
66273;BME280;58450;52.150;4.466;2023-01-31T07:00:44;102131.94;;;5.96;100.00
66273;BME280;58450;52.150;4.466;2023-01-31T07:03:12;102124.66;;;6.09;100.00
66273;BME280;58450;52.150;4.466;2023-01-31T07:05:40;102137.53;;;6.15;100.00
66273;BME280;58450;52.150;4.466;2023-01-31T07:08:07;102140.53;;;6.22;100.00
66273;BME280;58450;52.150;4.466;2023-01-31T07:10:35;102107.69;;;6.31;100.00
66273;BME280;58450;52.150;4.466;2023-01-31T07:13:02;102149.03;;;6.27;100.00
66273;BME280;58450;52.150;4.466;2023-01-31T07:15:30;102141.34;;;6.34;100.00
66273;BME280;58450;52.150;4.466;2023-01-31T07:17:59;102116.78;;;6.40;100.00
66273;BME280;58450;52.150;4.466;2023-01-31T07:20:26;102144.03;;;6.34;100.00
66273;BME280;58450;52.150;4.466;2023-01-31T07:22:54;102137.84;;;6.22;100.00
66273;BME280;58450;52.150;4.466;2023-01-31T07:25:21;102124.88;;;6.17;100.00
66273;BME280;58450;52.150;4.466;2023-01-31T07:27:49;102121.88;;;5.99;100.00
66273;BME280;58450;52.150;4.466;2023-01-31T07:30:17;102138.25;;;6.17;100.00
66273;BME280;58450;52.150;4.466;2023-01-31T07:32:45;102150.88;;;6.15;100.00
66273;BME280;58450;52.150;4.466;2023-01-31T07:35:14;102141.41;;;6.23;100.00
66273;BME280;58450;52.150;4.466;2023-01-31T07:37:41;102141.91;;;6.16;100.00
66273;BME280;58450;52.150;4.466;2023-01-31T07:40:10;102126.13;;;6.02;100.00
66273;BME280;58450;52.150;4.466;2023-01-31T07:42:39;102122.38;;;6.04;100.00
66273;BME280;58450;52.150;4.466;2023-01-31T07:45:11;102117.63;;;5.97;100.00
66273;BME280;58450;52.150;4.466;2023-01-31T07:47:40;102100.53;;;5.88;100.00
66273;BME280;58450;52.150;4.466;2023-01-31T07:50:09;102101.84;;;5.82;100.00
66273;BME280;58450;52.150;4.466;2023-01-31T07:52:39;102097.38;;;5.83;100.00
66273;BME280;58450;52.150;4.466;2023-01-31T07:55:07;102088.13;;;5.87;100.00
66273;BME280;58450;52.150;4.466;2023-01-31T07:57:35;102089.34;;;5.94;100.00
66273;BME280;58450;52.150;4.466;2023-01-31T08:00:03;102151.16;;;5.89;100.00
66273;BME280;58450;52.150;4.466;2023-01-31T08:02:52;102118.47;;;5.97;100.00
66273;BME280;58450;52.150;4.466;2023-01-31T08:05:37;102100.84;;;5.95;100.00
66273;BME280;58450;52.150;4.466;2023-01-31T08:08:06;102117.28;;;6.01;100.00
66273;BME280;58450;52.150;4.466;2023-01-31T08:10:36;102095.97;;;6.00;100.00
66273;BME280;58450;52.150;4.466;2023-01-31T08:13:05;102104.25;;;5.97;100.00
66273;BME280;58450;52.150;4.466;2023-01-31T08:15:33;102094.22;;;6.00;100.00
66273;BME280;58450;52.150;4.466;2023-01-31T08:18:00;102072.78;;;6.12;100.00
66273;BME280;58450;52.150;4.466;2023-01-31T08:20:28;102077.41;;;6.10;100.00
66273;BME280;58450;52.150;4.466;2023-01-31T08:22:55;102085.66;;;6.18;100.00
66273;BME280;58450;52.150;4.466;2023-01-31T08:25:26;102095.72;;;6.14;100.00
66273;BME280;58450;52.150;4.466;2023-01-31T08:27:56;102061.31;;;6.21;100.00
66273;BME280;58450;52.150;4.466;2023-01-31T08:30:24;102076.25;;;6.24;100.00
66273;BME280;58450;52.150;4.466;2023-01-31T08:32:52;102065.25;;;6.17;100.00
66273;BME280;58450;52.150;4.466;2023-01-31T08:35:19;102065.88;;;6.30;100.00
66273;BME280;58450;52.150;4.466;2023-01-31T08:37:47;102077.19;;;6.34;100.00
66273;BME280;58450;52.150;4.466;2023-01-31T08:40:15;102052.41;;;6.32;100.00
66273;BME280;58450;52.150;4.466;2023-01-31T08:42:52;102067.13;;;6.26;100.00
66273;BME280;58450;52.150;4.466;2023-01-31T08:45:20;102057.69;;;6.43;100.00
66273;BME280;58450;52.150;4.466;2023-01-31T08:47:52;102068.41;;;6.43;100.00
66273;BME280;58450;52.150;4.466;2023-01-31T08:50:21;102088.41;;;6.49;100.00
66273;BME280;58450;52.150;4.466;2023-01-31T08:52:52;102119.47;;;6.61;100.00
66273;BME280;58450;52.150;4.466;2023-01-31T08:55:21;102107.22;;;6.59;100.00
66273;BME280;58450;52.150;4.466;2023-01-31T08:57:50;102087.06;;;6.55;100.00
66273;BME280;58450;52.150;4.466;2023-01-31T09:00:20;102076.47;;;6.53;100.00
66273;BME280;58450;52.150;4.466;2023-01-31T09:02:50;102083.47;;;6.65;100.00
66273;BME280;58450;52.150;4.466;2023-01-31T09:05:18;102076.41;;;6.64;100.00
66273;BME280;58450;52.150;4.466;2023-01-31T09:07:45;102106.25;;;6.60;100.00
66273;BME280;58450;52.150;4.466;2023-01-31T09:10:13;102067.19;;;6.78;100.00
66273;BME280;58450;52.150;4.466;2023-01-31T09:12:40;102067.84;;;6.92;100.00
66273;BME280;58450;52.150;4.466;2023-01-31T09:15:10;102047.59;;;6.99;100.00
66273;BME280;58450;52.150;4.466;2023-01-31T09:17:38;102043.38;;;6.97;100.00
66273;BME280;58450;52.150;4.466;2023-01-31T09:20:07;102037.25;;;7.16;100.00
66273;BME280;58450;52.150;4.466;2023-01-31T09:22:36;102040.63;;;7.18;100.00
66273;BME280;58450;52.150;4.466;2023-01-31T09:25:04;102043.25;;;7.08;100.00
66273;BME280;58450;52.150;4.466;2023-01-31T09:27:34;102054.84;;;7.18;100.00
66273;BME280;58450;52.150;4.466;2023-01-31T09:30:04;102065.09;;;7.03;100.00
66273;BME280;58450;52.150;4.466;2023-01-31T09:32:34;102040.31;;;7.11;100.00
66273;BME280;58450;52.150;4.466;2023-01-31T09:35:04;102069.75;;;7.11;100.00
66273;BME280;58450;52.150;4.466;2023-01-31T09:37:32;102031.91;;;7.16;100.00
66273;BME280;58450;52.150;4.466;2023-01-31T09:39:59;102038.63;;;7.10;100.00
66273;BME280;58450;52.150;4.466;2023-01-31T09:42:30;102035.28;;;7.18;100.00
66273;BME280;58450;52.150;4.466;2023-01-31T09:45:02;102044.75;;;7.32;100.00
66273;BME280;58450;52.150;4.466;2023-01-31T09:47:36;102023.75;;;7.27;100.00
66273;BME280;58450;52.150;4.466;2023-01-31T09:50:14;102029.69;;;7.31;100.00
66273;BME280;58450;52.150;4.466;2023-01-31T09:52:48;102038.44;;;7.33;100.00
66273;BME280;58450;52.150;4.466;2023-01-31T09:55:18;102049.50;;;7.18;100.00
66273;BME280;58450;52.150;4.466;2023-01-31T09:57:54;102052.13;;;7.39;100.00
66273;BME280;58450;52.150;4.466;2023-01-31T10:00:33;102050.00;;;7.33;100.00
66273;BME280;58450;52.150;4.466;2023-01-31T10:03:24;102048.75;;;7.37;100.00
66273;BME280;58450;52.150;4.466;2023-01-31T10:06:09;102087.41;;;7.54;100.00
66273;BME280;58450;52.150;4.466;2023-01-31T10:08:49;102068.75;;;7.33;100.00
66273;BME280;58450;52.150;4.466;2023-01-31T10:11:29;102071.41;;;7.33;100.00
66273;BME280;58450;52.150;4.466;2023-01-31T10:14:08;102050.56;;;7.37;100.00
66273;BME280;58450;52.150;4.466;2023-01-31T10:16:54;102060.56;;;7.35;100.00
66273;BME280;58450;52.150;4.466;2023-01-31T10:19:36;102058.38;;;7.50;100.00
66273;BME280;58450;52.150;4.466;2023-01-31T10:22:15;102046.22;;;7.46;100.00
66273;BME280;58450;52.150;4.466;2023-01-31T10:24:51;102052.84;;;7.42;100.00
66273;BME280;58450;52.150;4.466;2023-01-31T10:27:34;102052.44;;;7.46;100.00
66273;BME280;58450;52.150;4.466;2023-01-31T10:30:15;102051.88;;;7.52;100.00
66273;BME280;58450;52.150;4.466;2023-01-31T10:32:49;102041.88;;;7.64;100.00
66273;BME280;58450;52.150;4.466;2023-01-31T10:35:26;102100.53;;;7.58;100.00
66273;BME280;58450;52.150;4.466;2023-01-31T10:38:00;102037.34;;;7.55;100.00
66273;BME280;58450;52.150;4.466;2023-01-31T10:40:33;102044.97;;;7.50;100.00
66273;BME280;58450;52.150;4.466;2023-01-31T10:43:11;102064.31;;;7.63;100.00
66273;BME280;58450;52.150;4.466;2023-01-31T10:45:44;102031.59;;;7.69;100.00
66273;BME280;58450;52.150;4.466;2023-01-31T10:48:15;102047.50;;;7.61;100.00
66273;BME280;58450;52.150;4.466;2023-01-31T10:50:55;102067.09;;;7.52;100.00
66273;BME280;58450;52.150;4.466;2023-01-31T10:53:47;102068.44;;;7.77;100.00
66273;BME280;58450;52.150;4.466;2023-01-31T10:56:30;102052.44;;;7.56;100.00
66273;BME280;58450;52.150;4.466;2023-01-31T10:59:03;102067.94;;;7.52;100.00
66273;BME280;58450;52.150;4.466;2023-01-31T11:01:33;102080.38;;;7.63;100.00
66273;BME280;58450;52.150;4.466;2023-01-31T11:04:02;102057.97;;;7.64;100.00
66273;BME280;58450;52.150;4.466;2023-01-31T11:06:49;102067.53;;;7.57;100.00
66273;BME280;58450;52.150;4.466;2023-01-31T11:09:17;102065.56;;;7.59;100.00
66273;BME280;58450;52.150;4.466;2023-01-31T11:11:56;102058.13;;;7.73;100.00
66273;BME280;58450;52.150;4.466;2023-01-31T11:14:25;102065.16;;;7.74;100.00
66273;BME280;58450;52.150;4.466;2023-01-31T11:16:58;102077.25;;;7.58;100.00
66273;BME280;58450;52.150;4.466;2023-01-31T11:19:34;102068.78;;;7.53;100.00
66273;BME280;58450;52.150;4.466;2023-01-31T11:22:08;102077.41;;;7.57;100.00
66273;BME280;58450;52.150;4.466;2023-01-31T11:24:48;102061.16;;;7.48;100.00
66273;BME280;58450;52.150;4.466;2023-01-31T11:27:24;102068.94;;;7.61;100.00
66273;BME280;58450;52.150;4.466;2023-01-31T11:29:56;102074.41;;;7.40;100.00
66273;BME280;58450;52.150;4.466;2023-01-31T11:32:28;102056.53;;;7.60;100.00
66273;BME280;58450;52.150;4.466;2023-01-31T11:35:01;102059.50;;;7.57;100.00
66273;BME280;58450;52.150;4.466;2023-01-31T11:37:32;102071.75;;;7.50;100.00
66273;BME280;58450;52.150;4.466;2023-01-31T11:40:02;102071.88;;;7.48;100.00
66273;BME280;58450;52.150;4.466;2023-01-31T11:42:50;102086.00;;;7.50;100.00
66273;BME280;58450;52.150;4.466;2023-01-31T11:45:20;102063.13;;;7.46;100.00
66273;BME280;58450;52.150;4.466;2023-01-31T11:47:50;102066.97;;;7.53;100.00
66273;BME280;58450;52.150;4.466;2023-01-31T11:50:20;102047.09;;;7.56;100.00
66273;BME280;58450;52.150;4.466;2023-01-31T11:52:55;102080.19;;;7.45;100.00
66273;BME280;58450;52.150;4.466;2023-01-31T11:55:25;102064.28;;;7.53;100.00
66273;BME280;58450;52.150;4.466;2023-01-31T11:57:56;102030.88;;;7.48;100.00
66273;BME280;58450;52.150;4.466;2023-01-31T12:00:27;102046.97;;;7.58;100.00
66273;BME280;58450;52.150;4.466;2023-01-31T12:03:01;102026.50;;;7.57;100.00
66273;BME280;58450;52.150;4.466;2023-01-31T12:05:35;102026.91;;;7.52;100.00
66273;BME280;58450;52.150;4.466;2023-01-31T12:08:24;102036.63;;;7.43;100.00
66273;BME280;58450;52.150;4.466;2023-01-31T12:10:55;102013.41;;;7.53;100.00
66273;BME280;58450;52.150;4.466;2023-01-31T12:13:23;102009.72;;;7.64;100.00
66273;BME280;58450;52.150;4.466;2023-01-31T12:15:56;102010.59;;;7.75;100.00
66273;BME280;58450;52.150;4.466;2023-01-31T12:18:36;102023.31;;;7.92;100.00
66273;BME280;58450;52.150;4.466;2023-01-31T12:21:15;101997.22;;;8.14;100.00
66273;BME280;58450;52.150;4.466;2023-01-31T12:24:04;101991.13;;;8.22;100.00
66273;BME280;58450;52.150;4.466;2023-01-31T12:26:46;101995.22;;;8.36;100.00
66273;BME280;58450;52.150;4.466;2023-01-31T12:29:25;101986.03;;;8.28;100.00
66273;BME280;58450;52.150;4.466;2023-01-31T12:32:24;102036.16;;;8.38;100.00
66273;BME280;58450;52.150;4.466;2023-01-31T12:35:15;101988.00;;;8.17;100.00
66273;BME280;58450;52.150;4.466;2023-01-31T12:38:05;101985.91;;;8.01;100.00
66273;BME280;58450;52.150;4.466;2023-01-31T12:40:47;102006.50;;;8.20;100.00
66273;BME280;58450;52.150;4.466;2023-01-31T12:43:41;102008.47;;;8.18;100.00
66273;BME280;58450;52.150;4.466;2023-01-31T12:46:26;101986.75;;;8.01;100.00
66273;BME280;58450;52.150;4.466;2023-01-31T12:52:17;101998.63;;;8.18;100.00
66273;BME280;58450;52.150;4.466;2023-01-31T12:55:01;102004.41;;;8.23;100.00
66273;BME280;58450;52.150;4.466;2023-01-31T12:57:43;101985.44;;;8.54;100.00
66273;BME280;58450;52.150;4.466;2023-01-31T13:00:25;101962.66;;;8.96;100.00
66273;BME280;58450;52.150;4.466;2023-01-31T13:03:11;101972.50;;;9.15;100.00
66273;BME280;58450;52.150;4.466;2023-01-31T13:05:55;101992.38;;;8.95;100.00
66273;BME280;58450;52.150;4.466;2023-01-31T13:08:29;102010.09;;;9.15;100.00
66273;BME280;58450;52.150;4.466;2023-01-31T13:11:01;101998.44;;;9.25;100.00
66273;BME280;58450;52.150;4.466;2023-01-31T13:13:37;101976.91;;;9.07;100.00
66273;BME280;58450;52.150;4.466;2023-01-31T13:16:12;101993.59;;;9.28;100.00
66273;BME280;58450;52.150;4.466;2023-01-31T13:18:46;101962.78;;;9.51;100.00
66273;BME280;58450;52.150;4.466;2023-01-31T13:21:19;101990.13;;;9.46;100.00
66273;BME280;58450;52.150;4.466;2023-01-31T13:23:55;101988.84;;;9.22;100.00
66273;BME280;58450;52.150;4.466;2023-01-31T13:26:29;101978.47;;;9.55;100.00
66273;BME280;58450;52.150;4.466;2023-01-31T13:29:04;101980.16;;;9.56;100.00